Nogales International Airport Nogales US
ICAO: KOLS
IATA: OLS
Category: Medium
Scheduled Services: No

Elevation: 3955 ft
TransAlt. 18000 ft.

Airport Communications:
TUCSON APP DEP:125.1
ASOS:121.125
PRESCOTT RDO:122.4
CTAF/UNICOM:122.8

KOLS Zoom In..

Runways:

(A) RW 03 length 7200 ft width 100 ft
---- / hdg 34

(B) RW 21 length 7200 ft width 100 ft
---- / hdg 214

Location; KOLS
Day. 24 / Time. 07.54 Zulu
* Altimeter: 30.08
* Temperature: 17° c. 62.6°f.
* Wind from: 080° Speed 06 kn.
Dewpoint: 01° c.
Visibility: 10 Statute Miles.
Clouds: Clear (automated report).

KOLS 240754Z AUTO 08006KT 10SM CLR 17/01 A3008 RMK AO2 SLP120 T01670011


Wind From 080°
Speed 06 kn.

 
 
jpsmedia.com for Web Design SOUNDCLOUD worldairports.se 2018   terms of use